Time;durP1;ratioP1;P1;durP2;ratioP2;P2;SDS_P1;SDS_P2;PMS_P1;PMS_P2;Temp;Humidity;BMP_temperature;BMP_pressure;BME280_temperature;BME280_humidity;BME280_pressure;Samples;Min_cycle;Max_cycle;Signal;HPM_P1;HPM_P2
2022/11/20 00:02:01;;;;;;;2.90;2.80;;;;;;;;;;4973935;28;20255;-89
2022/11/20 00:04:29;;;;;;;3.57;3.47;;;;;;;;;;4971081;28;20221;-89
2022/11/20 00:06:58;;;;;;;1.30;1.30;;;;;;;;;;4972819;28;20291;-89
2022/11/20 00:09:26;;;;;;;1.00;1.00;;;;;;;;;;4974189;28;20196;-90
2022/11/20 00:11:55;;;;;;;1.00;1.00;;;;;;;;;;4974011;28;20201;-90
2022/11/20 00:14:24;;;;;;;3.97;3.87;;;;;;;;;;4973798;28;20204;-88
2022/11/20 00:16:53;;;;;;;1.80;1.80;;;;;;;;;;4962353;28;20209;-88
2022/11/20 00:19:21;;;;;;;3.73;3.43;;;;;;;;;;4973419;28;20212;-89
2022/11/20 00:21:51;;;;;;;1.10;1.10;;;;;;;;;;4970167;28;20197;-89
2022/11/20 00:24:19;;;;;;;2.33;2.30;;;;;;;;;;4969922;28;20197;-89
2022/11/20 00:26:48;;;;;;;1.67;1.67;;;;;;;;;;4965193;28;20272;-89
2022/11/20 00:29:16;;;;;;;1.20;1.20;;;;;;;;;;4971075;28;20219;-88
2022/11/20 00:31:46;;;;;;;2.47;2.37;;;;;;;;;;4973707;28;20212;-89
2022/11/20 00:34:14;;;;;;;0.90;0.90;;;;;;;;;;4973163;28;20196;-89
2022/11/20 00:36:43;;;;;;;1.57;1.57;;;;;;;;;;4973378;28;20272;-90
2022/11/20 00:39:11;;;;;;;1.00;1.00;;;;;;;;;;4970193;28;20248;-90
2022/11/20 00:41:40;;;;;;;1.53;1.53;;;;;;;;;;4965744;28;20235;-90
2022/11/20 00:44:08;;;;;;;1.00;1.00;;;;;;;;;;4974293;28;20209;-89
2022/11/20 00:46:36;;;;;;;1.00;1.00;;;;;;;;;;4973372;28;20208;-90
2022/11/20 00:49:06;;;;;;;0.90;0.90;;;;;;;;;;4973229;28;20276;-90
2022/11/20 00:51:34;;;;;;;1.00;1.00;;;;;;;;;;4973220;28;20205;-90
2022/11/20 00:54:03;;;;;;;2.07;1.97;;;;;;;;;;4973597;28;20232;-90
2022/11/20 00:56:31;;;;;;;1.63;1.63;;;;;;;;;;4973274;28;20204;-90
2022/11/20 00:59:01;;;;;;;1.00;1.00;;;;;;;;;;4956198;28;20209;-90
2022/11/20 01:01:30;;;;;;;3.63;3.43;;;;;;;;;;4972819;28;20205;-90
2022/11/20 01:03:59;;;;;;;3.10;3.00;;;;;;;;;;4973909;28;20255;-90
2022/11/20 01:06:30;;;;;;;1.63;1.63;;;;;;;;;;4972751;28;20201;-90
2022/11/20 01:09:00;;;;;;;1.00;1.00;;;;;;;;;;4977149;28;20205;-90
2022/11/20 01:11:29;;;;;;;1.00;1.00;;;;;;;;;;4976914;28;20197;-90
2022/11/20 01:13:58;;;;;;;3.07;2.90;;;;;;;;;;4973810;28;20225;-90
2022/11/20 01:16:28;;;;;;;1.20;1.20;;;;;;;;;;4975466;28;20196;-91
2022/11/20 01:18:58;;;;;;;1.07;1.07;;;;;;;;;;4977112;28;20212;-90
2022/11/20 01:21:27;;;;;;;2.13;1.93;;;;;;;;;;4977917;28;20206;-90
2022/11/20 01:23:57;;;;;;;2.10;2.03;;;;;;;;;;4976694;28;20271;-90
2022/11/20 01:26:26;;;;;;;1.03;1.03;;;;;;;;;;4976816;28;20216;-89
2022/11/20 01:28:55;;;;;;;1.40;1.40;;;;;;;;;;4976808;28;20264;-90
2022/11/20 01:31:24;;;;;;;1.20;1.20;;;;;;;;;;4965696;28;20236;-90
2022/11/20 01:33:53;;;;;;;1.00;1.00;;;;;;;;;;4976501;28;20204;-91
2022/11/20 01:36:22;;;;;;;1.43;1.43;;;;;;;;;;4976282;28;20233;-90
2022/11/20 01:38:52;;;;;;;3.77;3.57;;;;;;;;;;4976464;28;20205;-90
2022/11/20 01:44:09;;;;;;;3.27;3.13;;;;;;;;;;4976201;28;20212;-90
2022/11/20 01:46:38;;;;;;;0.90;0.90;;;;;;;;;;4976187;28;20216;-89
2022/11/20 01:49:10;;;;;;;1.00;1.00;;;;;;;;;;4976252;28;20224;-90
2022/11/20 01:51:40;;;;;;;0.90;0.90;;;;;;;;;;4973006;28;20213;-89
2022/11/20 01:54:10;;;;;;;1.13;1.13;;;;;;;;;;4977487;28;20209;-90
2022/11/20 01:56:44;;;;;;;1.83;1.10;;;;;;;;;;4975950;28;20227;-89
2022/11/20 01:59:15;;;;;;;1.00;1.00;;;;;;;;;;4976138;28;20201;-90
2022/11/20 02:01:43;;;;;;;1.37;1.37;;;;;;;;;;4975542;28;20256;-89
2022/11/20 02:04:13;;;;;;;1.10;1.10;;;;;;;;;;4968310;28;20278;-89
2022/11/20 02:06:42;;;;;;;1.00;1.00;;;;;;;;;;4972972;28;20197;-90
2022/11/20 02:09:11;;;;;;;2.70;2.60;;;;;;;;;;4976423;28;20268;-90
2022/11/20 02:11:41;;;;;;;0.90;0.90;;;;;;;;;;4975059;28;20197;-90
2022/11/20 02:14:08;;;;;;;1.63;1.63;;;;;;;;;;4976020;28;20202;-90
2022/11/20 02:16:39;;;;;;;1.23;1.23;;;;;;;;;;4977005;28;20209;-90
2022/11/20 02:19:09;;;;;;;1.13;1.13;;;;;;;;;;4975955;28;20240;-90
2022/11/20 02:21:41;;;;;;;1.30;1.30;;;;;;;;;;4976114;28;20205;-90
2022/11/20 02:24:11;;;;;;;0.90;0.90;;;;;;;;;;4976826;28;20252;-90
2022/11/20 02:26:43;;;;;;;1.77;1.77;;;;;;;;;;4976092;28;20212;-90
2022/11/20 02:29:11;;;;;;;1.10;1.10;;;;;;;;;;4975500;28;20236;-90
2022/11/20 02:31:40;;;;;;;3.77;3.47;;;;;;;;;;4975695;28;20205;-90
2022/11/20 02:34:09;;;;;;;1.87;1.87;;;;;;;;;;4976587;28;20201;-90
2022/11/20 02:36:39;;;;;;;1.73;1.63;;;;;;;;;;4976535;28;20266;-89
2022/11/20 02:39:08;;;;;;;0.90;0.90;;;;;;;;;;4975119;28;20207;-89
2022/11/20 02:41:39;;;;;;;1.63;1.63;;;;;;;;;;4975716;28;20216;-89
2022/11/20 02:44:07;;;;;;;1.43;1.43;;;;;;;;;;4975378;28;20220;-90
2022/11/20 02:46:36;;;;;;;5.93;1.53;;;;;;;;;;4976572;28;20207;-89
2022/11/20 02:49:05;;;;;;;2.23;2.13;;;;;;;;;;4975092;28;20220;-89
2022/11/20 02:51:34;;;;;;;1.00;1.00;;;;;;;;;;4963074;28;20228;-89
2022/11/20 02:54:02;;;;;;;1.20;1.20;;;;;;;;;;4973004;28;20206;-90
2022/11/20 02:56:31;;;;;;;1.13;1.13;;;;;;;;;;4975579;28;20209;-89
2022/11/20 02:59:00;;;;;;;1.00;1.00;;;;;;;;;;4974846;28;20205;-89
2022/11/20 03:01:29;;;;;;;1.00;1.00;;;;;;;;;;4975252;28;20201;-89
2022/11/20 03:03:57;;;;;;;1.00;1.00;;;;;;;;;;4974981;28;20304;-89
2022/11/20 03:06:26;;;;;;;0.90;0.90;;;;;;;;;;4975303;28;20201;-90
2022/11/20 03:08:54;;;;;;;2.37;2.27;;;;;;;;;;4974642;28;20201;-90
2022/11/20 03:11:22;;;;;;;3.10;2.90;;;;;;;;;;4974775;28;20205;-90
2022/11/20 03:13:51;;;;;;;0.93;0.93;;;;;;;;;;4974020;28;20200;-89
2022/11/20 03:16:22;;;;;;;0.90;0.90;;;;;;;;;;4971535;28;20260;-89
2022/11/20 03:18:51;;;;;;;1.20;1.20;;;;;;;;;;4969335;28;20256;-89
2022/11/20 03:21:19;;;;;;;2.43;2.33;;;;;;;;;;4966163;28;20197;-88
2022/11/20 03:23:48;;;;;;;1.30;1.30;;;;;;;;;;4974390;28;20240;-89
2022/11/20 03:26:17;;;;;;;1.00;1.00;;;;;;;;;;4975077;28;20212;-90
2022/11/20 03:28:48;;;;;;;1.60;1.60;;;;;;;;;;4974463;28;20197;-89
2022/11/20 03:31:17;;;;;;;3.50;3.20;;;;;;;;;;4974600;28;20236;-90
2022/11/20 03:33:47;;;;;;;4.73;2.67;;;;;;;;;;4961832;28;20260;-89
2022/11/20 03:36:16;;;;;;;1.10;1.10;;;;;;;;;;4974371;28;20295;-89
2022/11/20 03:38:45;;;;;;;2.50;2.40;;;;;;;;;;4974479;28;20205;-89
2022/11/20 03:41:14;;;;;;;1.10;1.10;;;;;;;;;;4974350;28;20212;-90
2022/11/20 03:43:42;;;;;;;8.43;6.77;;;;;;;;;;4974471;28;20263;-90
2022/11/20 03:46:11;;;;;;;7.83;6.10;;;;;;;;;;4962740;28;20248;-89
2022/11/20 03:48:39;;;;;;;2.80;2.70;;;;;;;;;;4974385;28;20208;-89
2022/11/20 03:51:10;;;;;;;3.10;2.90;;;;;;;;;;4974099;28;20207;-89
2022/11/20 03:53:38;;;;;;;4.30;3.93;;;;;;;;;;4974837;28;20205;-89
2022/11/20 03:56:07;;;;;;;1.80;1.73;;;;;;;;;;4974392;28;20256;-89
2022/11/20 03:58:39;;;;;;;1.60;1.60;;;;;;;;;;4974279;28;20255;-90
2022/11/20 04:01:08;;;;;;;6.17;3.20;;;;;;;;;;4973762;28;20188;-89
2022/11/20 04:03:37;;;;;;;2.50;2.40;;;;;;;;;;4973932;28;20221;-89
2022/11/20 04:06:06;;;;;;;1.87;1.87;;;;;;;;;;4973828;28;20260;-89
2022/11/20 04:08:36;;;;;;;10.77;8.07;;;;;;;;;;4973380;28;20507;-89
2022/11/20 04:11:14;;;;;;;10.37;7.57;;;;;;;;;;4975012;28;20227;-89
2022/11/20 04:13:43;;;;;;;1.83;1.73;;;;;;;;;;4974733;28;20292;-89
2022/11/20 04:16:12;;;;;;;3.57;3.37;;;;;;;;;;4973620;28;20467;-89
2022/11/20 04:18:40;;;;;;;2.00;2.00;;;;;;;;;;4973310;28;20208;-89
2022/11/20 04:21:09;;;;;;;1.47;1.43;;;;;;;;;;4974758;28;20201;-89
2022/11/20 04:23:39;;;;;;;4.77;4.40;;;;;;;;;;4973268;28;20208;-89
2022/11/20 04:26:08;;;;;;;1.00;1.00;;;;;;;;;;4973440;28;20225;-89
2022/11/20 04:28:37;;;;;;;1.57;1.57;;;;;;;;;;4973430;28;20197;-89
2022/11/20 04:31:06;;;;;;;1.00;1.00;;;;;;;;;;4974861;28;20208;-88
2022/11/20 04:33:35;;;;;;;6.30;3.10;;;;;;;;;;4972557;28;20200;-90
2022/11/20 04:36:04;;;;;;;1.83;1.73;;;;;;;;;;4973463;28;20279;-89
2022/11/20 04:38:32;;;;;;;1.00;1.00;;;;;;;;;;4973118;28;20252;-89
2022/11/20 04:41:05;;;;;;;1.00;1.00;;;;;;;;;;4973356;28;20296;-89
2022/11/20 04:43:34;;;;;;;3.80;3.40;;;;;;;;;;4961309;28;20209;-90
2022/11/20 04:46:02;;;;;;;3.03;2.83;;;;;;;;;;4973717;28;20220;-89
2022/11/20 04:48:31;;;;;;;1.37;1.37;;;;;;;;;;4973144;28;20288;-89
2022/11/20 04:51:04;;;;;;;2.03;1.93;;;;;;;;;;4973426;28;20212;-90
2022/11/20 04:53:32;;;;;;;1.30;1.30;;;;;;;;;;4973530;28;20292;-90
2022/11/20 04:56:03;;;;;;;2.27;1.83;;;;;;;;;;4973222;28;20205;-90
2022/11/20 04:58:31;;;;;;;2.40;2.30;;;;;;;;;;4974555;28;20444;-89
2022/11/20 05:01:03;;;;;;;1.53;1.53;;;;;;;;;;4973368;28;20266;-90
2022/11/20 05:03:32;;;;;;;1.80;1.80;;;;;;;;;;4973366;28;20228;-89
2022/11/20 05:06:06;;;;;;;2.97;2.87;;;;;;;;;;4973025;28;20223;-90
2022/11/20 05:08:34;;;;;;;2.53;2.43;;;;;;;;;;4973480;28;20209;-89
2022/11/20 05:11:05;;;;;;;2.80;2.70;;;;;;;;;;4960731;28;20455;-90
2022/11/20 05:13:33;;;;;;;10.40;7.20;;;;;;;;;;4972275;28;20233;-90
2022/11/20 05:16:06;;;;;;;3.33;3.10;;;;;;;;;;4977963;28;20440;-88
2022/11/20 05:18:35;;;;;;;5.17;4.50;;;;;;;;;;4972841;28;20205;-89
2022/11/20 05:21:03;;;;;;;13.93;8.53;;;;;;;;;;4973281;28;20448;-90
2022/11/20 05:23:32;;;;;;;6.37;3.03;;;;;;;;;;4973399;28;20515;-82
2022/11/20 05:26:01;;;;;;;1.37;1.37;;;;;;;;;;4972858;28;20472;-82
2022/11/20 05:28:31;;;;;;;10.80;7.03;;;;;;;;;;4960306;28;20444;-82
2022/11/20 05:31:05;;;;;;;10.87;7.13;;;;;;;;;;4962825;28;20260;-82
2022/11/20 05:33:34;;;;;;;4.43;4.00;;;;;;;;;;4972185;28;20471;-82
2022/11/20 05:36:03;;;;;;;6.47;5.13;;;;;;;;;;4972784;28;20267;-82
2022/11/20 05:38:32;;;;;;;15.10;10.47;;;;;;;;;;4972120;28;20559;-82
2022/11/20 05:41:06;;;;;;;9.47;7.20;;;;;;;;;;4973983;28;20220;-82
2022/11/20 05:43:37;;;;;;;13.77;9.40;;;;;;;;;;4961802;28;20447;-82
2022/11/20 05:46:05;;;;;;;11.80;9.10;;;;;;;;;;4976362;28;20256;-82
2022/11/20 05:48:34;;;;;;;14.13;9.20;;;;;;;;;;4969821;28;20217;-82
2022/11/20 05:51:03;;;;;;;15.50;10.70;;;;;;;;;;4971536;28;20510;-82
2022/11/20 05:53:33;;;;;;;13.43;10.87;;;;;;;;;;4976524;28;20216;-82
2022/11/20 05:56:02;;;;;;;15.73;10.20;;;;;;;;;;4976279;28;20543;-82
2022/11/20 05:58:31;;;;;;;13.43;9.33;;;;;;;;;;4976236;28;20225;-82
2022/11/20 06:01:06;;;;;;;4.27;4.00;;;;;;;;;;4975988;28;20452;-82
2022/11/20 06:03:34;;;;;;;2.13;2.03;;;;;;;;;;4973102;28;20472;-82
2022/11/20 06:06:03;;;;;;;3.33;3.03;;;;;;;;;;4975436;28;20479;-82
2022/11/20 06:08:32;;;;;;;5.03;4.57;;;;;;;;;;4977118;28;20212;-82
2022/11/20 06:11:04;;;;;;;10.97;6.30;;;;;;;;;;4975745;28;20259;-82
2022/11/20 06:13:32;;;;;;;12.50;9.30;;;;;;;;;;4975768;28;20200;-82
2022/11/20 06:16:08;;;;;;;2.57;2.47;;;;;;;;;;4977393;28;20527;-82
2022/11/20 06:18:36;;;;;;;6.67;6.20;;;;;;;;;;4976017;28;20448;-82
2022/11/20 06:21:05;;;;;;;2.43;2.33;;;;;;;;;;4975912;28;20228;-82
2022/11/20 06:23:34;;;;;;;2.13;2.03;;;;;;;;;;4975675;28;20203;-82
2022/11/20 06:26:03;;;;;;;5.40;4.87;;;;;;;;;;4976083;28;20213;-82
2022/11/20 06:28:31;;;;;;;1.87;1.87;;;;;;;;;;4964082;28;20292;-82
2022/11/20 06:31:00;;;;;;;4.37;2.77;;;;;;;;;;4976090;28;20459;-82
2022/11/20 06:33:30;;;;;;;4.13;3.77;;;;;;;;;;4975739;28;20470;-82
2022/11/20 06:35:58;;;;;;;1.43;1.43;;;;;;;;;;4976457;28;20484;-82
2022/11/20 06:38:30;;;;;;;16.13;9.23;;;;;;;;;;4976511;28;20210;-82
2022/11/20 06:40:58;;;;;;;1.77;1.77;;;;;;;;;;4975189;28;20456;-82
2022/11/20 06:43:27;;;;;;;2.83;2.63;;;;;;;;;;4976524;28;20209;-82
2022/11/20 06:45:55;;;;;;;9.93;3.30;;;;;;;;;;4975312;28;20220;-82
2022/11/20 06:48:24;;;;;;;2.07;1.97;;;;;;;;;;4964012;28;20197;-82
2022/11/20 06:50:54;;;;;;;2.33;2.27;;;;;;;;;;4975431;28;20224;-82
2022/11/20 06:53:22;;;;;;;4.47;4.10;;;;;;;;;;4976529;28;20212;-81
2022/11/20 06:55:52;;;;;;;5.07;4.67;;;;;;;;;;4974043;28;20449;-81
2022/11/20 06:58:20;;;;;;;4.33;3.93;;;;;;;;;;4976532;28;20507;-82
2022/11/20 07:00:49;;;;;;;5.33;4.77;;;;;;;;;;4971968;28;20461;-82
2022/11/20 07:03:17;;;;;;;3.07;2.87;;;;;;;;;;4966156;28;20235;-81
2022/11/20 07:05:46;;;;;;;2.83;2.63;;;;;;;;;;4971837;28;20209;-82
2022/11/20 07:08:15;;;;;;;2.03;1.93;;;;;;;;;;4956167;28;20243;-81
2022/11/20 07:10:44;;;;;;;4.30;3.93;;;;;;;;;;4974219;28;20208;-81
2022/11/20 07:13:12;;;;;;;14.60;9.73;;;;;;;;;;4974890;28;20220;-81
2022/11/20 07:15:41;;;;;;;2.80;2.70;;;;;;;;;;4971554;28;20210;-81
2022/11/20 07:18:09;;;;;;;3.30;3.10;;;;;;;;;;4968121;28;20260;-82
2022/11/20 07:20:37;;;;;;;4.10;3.70;;;;;;;;;;4974847;28;20456;-81
2022/11/20 07:23:06;;;;;;;1.70;1.60;;;;;;;;;;4974824;28;20201;-82
2022/11/20 07:25:35;;;;;;;1.10;1.10;;;;;;;;;;4974421;28;20197;-81
2022/11/20 07:28:04;;;;;;;2.47;2.27;;;;;;;;;;4974868;28;20205;-82
2022/11/20 07:30:33;;;;;;;2.03;1.93;;;;;;;;;;4963280;28;20272;-81
2022/11/20 07:33:01;;;;;;;5.40;2.70;;;;;;;;;;4973982;28;20299;-82
2022/11/20 07:35:29;;;;;;;2.70;2.60;;;;;;;;;;4971203;28;20245;-82
2022/11/20 07:37:58;;;;;;;8.83;7.83;;;;;;;;;;4969842;28;20205;-81
2022/11/20 07:40:26;;;;;;;3.40;3.10;;;;;;;;;;4974508;28;20256;-82
2022/11/20 07:42:56;;;;;;;3.00;2.77;;;;;;;;;;4973515;28;20206;-82
2022/11/20 07:45:25;;;;;;;2.93;2.73;;;;;;;;;;4975608;28;20197;-81
2022/11/20 07:47:54;;;;;;;4.07;3.67;;;;;;;;;;4973923;28;20271;-81
2022/11/20 07:50:22;;;;;;;2.63;1.93;;;;;;;;;;4974346;28;20271;-82
2022/11/20 07:52:50;;;;;;;3.50;3.20;;;;;;;;;;4973933;28;20201;-81
2022/11/20 07:55:19;;;;;;;2.50;2.37;;;;;;;;;;4974315;28;20236;-82
2022/11/20 07:57:47;;;;;;;2.33;2.23;;;;;;;;;;4974908;28;20246;-82
2022/11/20 08:00:17;;;;;;;1.43;1.43;;;;;;;;;;4974219;28;20256;-81
2022/11/20 08:02:46;;;;;;;9.13;8.20;;;;;;;;;;4970936;28;20221;-81
2022/11/20 08:05:15;;;;;;;7.63;5.07;;;;;;;;;;4968372;28;20279;-82
2022/11/20 08:07:44;;;;;;;16.97;11.93;;;;;;;;;;4970403;28;20316;-82
2022/11/20 08:10:13;;;;;;;9.83;6.87;;;;;;;;;;4968672;28;20236;-82
2022/11/20 08:15:40;;;;;;;9.43;7.03;;;;;;;;;;4939987;28;20212;-82
2022/11/20 08:18:11;;;;;;;7.50;6.33;;;;;;;;;;4973560;28;20200;-81
2022/11/20 08:20:59;;;;;;;11.67;8.27;;;;;;;;;;4962735;28;20287;-82
2022/11/20 08:23:28;;;;;;;15.93;11.73;;;;;;;;;;4973779;28;20209;-81
2022/11/20 08:25:56;;;;;;;19.27;14.53;;;;;;;;;;4974739;28;20204;-81
2022/11/20 08:28:24;;;;;;;12.23;9.60;;;;;;;;;;4961702;28;20200;-82
2022/11/20 08:30:53;;;;;;;20.20;16.87;;;;;;;;;;4973584;28;20193;-82
2022/11/20 08:33:23;;;;;;;20.27;14.57;;;;;;;;;;4969766;28;20315;-82
2022/11/20 08:35:51;;;;;;;13.10;10.80;;;;;;;;;;4981291;28;20295;-82
2022/11/20 08:38:21;;;;;;;15.60;13.07;;;;;;;;;;4970602;28;20260;-82
2022/11/20 08:43:31;;;;;;;21.10;17.80;;;;;;;;;;4974361;28;20236;-81
2022/11/20 08:46:00;;;;;;;18.67;15.87;;;;;;;;;;4973503;28;20205;-81
2022/11/20 08:48:30;;;;;;;19.43;17.23;;;;;;;;;;4973328;28;20232;-81
2022/11/20 08:50:59;;;;;;;20.03;17.63;;;;;;;;;;4961292;28;20287;-81
2022/11/20 08:53:28;;;;;;;20.80;18.63;;;;;;;;;;4970015;28;20209;-82
2022/11/20 08:55:56;;;;;;;18.37;15.20;;;;;;;;;;4970435;28;20201;-82
2022/11/20 08:58:24;;;;;;;20.67;17.27;;;;;;;;;;4973341;28;20221;-81
2022/11/20 09:00:53;;;;;;;20.73;18.53;;;;;;;;;;4973249;28;20200;-82
2022/11/20 09:03:21;;;;;;;20.53;17.47;;;;;;;;;;4973250;28;20224;-82
2022/11/20 09:05:51;;;;;;;14.23;11.90;;;;;;;;;;4969145;28;20221;-82
2022/11/20 09:08:19;;;;;;;21.87;17.63;;;;;;;;;;4981561;28;20233;-81
2022/11/20 09:10:52;;;;;;;21.97;19.47;;;;;;;;;;4973058;28;20209;-81
2022/11/20 09:13:21;;;;;;;21.83;17.80;;;;;;;;;;4973190;28;20288;-82
2022/11/20 09:15:54;;;;;;;22.10;19.73;;;;;;;;;;4967803;28;20224;-82
2022/11/20 09:18:22;;;;;;;21.67;19.40;;;;;;;;;;4983199;28;20193;-82
2022/11/20 09:20:52;;;;;;;14.53;13.03;;;;;;;;;;4976488;28;20208;-82
2022/11/20 09:23:20;;;;;;;25.10;18.63;;;;;;;;;;4977008;28;20204;-82
2022/11/20 09:25:49;;;;;;;20.97;17.47;;;;;;;;;;4976953;28;20189;-81
2022/11/20 09:28:18;;;;;;;18.43;13.47;;;;;;;;;;4976969;28;20412;-81
2022/11/20 09:30:46;;;;;;;18.37;13.97;;;;;;;;;;4977962;28;20200;-81
2022/11/20 09:33:15;;;;;;;22.37;20.00;;;;;;;;;;4976777;28;20197;-82
2022/11/20 09:35:44;;;;;;;14.00;11.43;;;;;;;;;;4976667;28;20307;-81
2022/11/20 09:38:14;;;;;;;21.03;18.77;;;;;;;;;;4976493;28;20209;-82
2022/11/20 09:40:47;;;;;;;18.90;16.73;;;;;;;;;;4976665;28;20232;-82
2022/11/20 09:43:18;;;;;;;22.97;18.17;;;;;;;;;;4976520;28;20197;-82
2022/11/20 09:45:52;;;;;;;17.03;14.97;;;;;;;;;;4976858;28;20212;-81
2022/11/20 09:48:27;;;;;;;19.77;17.50;;;;;;;;;;4971103;28;20253;-81
2022/11/20 09:50:59;;;;;;;23.40;20.80;;;;;;;;;;4974774;28;20308;-82
2022/11/20 09:53:34;;;;;;;20.40;14.97;;;;;;;;;;4977503;28;20229;-81
2022/11/20 09:56:04;;;;;;;22.20;19.77;;;;;;;;;;4976496;28;20213;-82
2022/11/20 09:58:35;;;;;;;21.30;17.73;;;;;;;;;;4966037;28;20194;-82
2022/11/20 10:01:11;;;;;;;15.27;11.97;;;;;;;;;;4971829;28;20199;-82
2022/11/20 10:03:43;;;;;;;23.47;20.07;;;;;;;;;;4958571;28;20240;-81
2022/11/20 10:06:14;;;;;;;21.47;15.83;;;;;;;;;;4980126;28;20223;-82
2022/11/20 10:08:46;;;;;;;19.00;16.30;;;;;;;;;;4965352;28;20226;-81
2022/11/20 10:11:16;;;;;;;20.67;17.10;;;;;;;;;;4976214;28;20212;-81
2022/11/20 10:13:50;;;;;;;23.37;15.70;;;;;;;;;;4977255;28;20201;-81
2022/11/20 10:16:23;;;;;;;20.83;16.93;;;;;;;;;;4976311;28;20208;-81
2022/11/20 10:18:59;;;;;;;16.03;13.53;;;;;;;;;;4964479;28;20201;-82
2022/11/20 10:21:33;;;;;;;21.80;18.30;;;;;;;;;;4975900;28;20260;-82
2022/11/20 10:24:11;;;;;;;20.30;18.13;;;;;;;;;;4980136;28;20237;-81
2022/11/20 10:26:44;;;;;;;23.10;17.57;;;;;;;;;;4975502;28;20201;-81
2022/11/20 10:29:14;;;;;;;20.27;16.30;;;;;;;;;;4975993;28;20222;-81
2022/11/20 10:31:44;;;;;;;17.47;14.80;;;;;;;;;;4963156;28;20207;-81
2022/11/20 10:34:18;;;;;;;21.40;18.57;;;;;;;;;;4975768;28;20200;-83
2022/11/20 10:36:53;;;;;;;17.07;15.23;;;;;;;;;;4975232;28;20234;-80
2022/11/20 10:39:26;;;;;;;18.77;16.57;;;;;;;;;;4975401;28;20204;-81
2022/11/20 10:41:55;;;;;;;22.13;18.93;;;;;;;;;;4965070;28;20260;-79
2022/11/20 10:47:15;;;;;;;21.40;19.13;;;;;;;;;;4975578;28;20206;-80
2022/11/20 10:49:44;;;;;;;21.70;17.47;;;;;;;;;;4976343;28;20215;-80
2022/11/20 10:52:16;;;;;;;23.43;21.03;;;;;;;;;;4976471;28;20209;-80
2022/11/20 10:54:49;;;;;;;20.37;15.13;;;;;;;;;;4975064;28;20297;-80
2022/11/20 10:57:22;;;;;;;21.93;17.37;;;;;;;;;;4975029;28;20219;-81
2022/11/20 11:00:05;;;;;;;24.00;19.87;;;;;;;;;;4975066;28;20202;-80
2022/11/20 11:02:35;;;;;;;22.03;18.47;;;;;;;;;;4973745;28;20230;-80
2022/11/20 11:05:12;;;;;;;22.97;19.47;;;;;;;;;;4975128;28;20309;-80
2022/11/20 11:07:42;;;;;;;20.83;16.43;;;;;;;;;;4975926;28;20241;-81
2022/11/20 11:10:17;;;;;;;17.17;15.10;;;;;;;;;;4975240;28;20228;-79
2022/11/20 11:12:46;;;;;;;25.93;22.03;;;;;;;;;;4965021;28;20213;-86
2022/11/20 11:15:16;;;;;;;19.47;17.03;;;;;;;;;;4975019;28;20206;-82
2022/11/20 11:17:48;;;;;;;25.63;22.93;;;;;;;;;;4975930;28;20202;-81
2022/11/20 11:20:18;;;;;;;26.90;24.27;;;;;;;;;;4976167;28;20215;-81
2022/11/20 11:22:48;;;;;;;22.73;20.33;;;;;;;;;;4974591;28;20207;-81
2022/11/20 11:25:23;;;;;;;7.57;6.83;;;;;;;;;;4970881;28;20323;-81
2022/11/20 11:27:52;;;;;;;18.10;12.03;;;;;;;;;;4966663;28;20246;-78
2022/11/20 11:30:21;;;;;;;21.97;18.57;;;;;;;;;;4974750;28;20207;-78
2022/11/20 11:32:50;;;;;;;12.63;11.33;;;;;;;;;;4975009;28;20199;-78
2022/11/20 11:35:25;;;;;;;13.93;11.20;;;;;;;;;;4975363;28;20271;-78
2022/11/20 11:37:55;;;;;;;14.97;11.97;;;;;;;;;;4975532;28;20203;-78
2022/11/20 11:40:26;;;;;;;7.23;6.13;;;;;;;;;;4974535;28;20218;-78
2022/11/20 11:42:58;;;;;;;12.87;8.93;;;;;;;;;;4973749;28;20278;-78
2022/11/20 11:45:25;;;;;;;15.60;11.73;;;;;;;;;;4974619;28;20202;-78
2022/11/20 11:47:55;;;;;;;11.07;9.53;;;;;;;;;;4975563;28;20303;-78
2022/11/20 11:50:24;;;;;;;7.20;6.27;;;;;;;;;;4974439;28;20259;-79
2022/11/20 11:52:58;;;;;;;16.50;12.40;;;;;;;;;;4975571;28;20200;-79
2022/11/20 11:55:35;;;;;;;11.57;8.70;;;;;;;;;;4975467;28;20209;-80
2022/11/20 11:58:21;;;;;;;8.00;6.60;;;;;;;;;;4962207;28;20250;-83
2022/11/20 12:00:53;;;;;;;20.53;15.37;;;;;;;;;;4973878;28;20239;-82
2022/11/20 12:03:23;;;;;;;18.37;9.00;;;;;;;;;;4974971;28;20278;-82
2022/11/20 12:05:57;;;;;;;8.93;6.57;;;;;;;;;;4973776;28;20219;-82
2022/11/20 12:08:26;;;;;;;31.43;14.60;;;;;;;;;;4973942;28;20245;-82
2022/11/20 12:10:58;;;;;;;20.80;16.47;;;;;;;;;;4973670;28;20235;-81
2022/11/20 12:13:32;;;;;;;18.37;13.93;;;;;;;;;;4973667;28;20208;-84
2022/11/20 12:16:01;;;;;;;17.20;13.13;;;;;;;;;;4974201;28;20266;-85
2022/11/20 12:18:30;;;;;;;21.27;15.47;;;;;;;;;;4973324;28;20219;-85
2022/11/20 12:21:06;;;;;;;18.30;15.77;;;;;;;;;;4970570;28;20215;-86
2022/11/20 12:23:40;;;;;;;9.83;7.17;;;;;;;;;;4970263;28;20201;-87
2022/11/20 12:26:17;;;;;;;15.13;10.00;;;;;;;;;;4974687;28;20235;-83
2022/11/20 12:28:50;;;;;;;23.33;16.33;;;;;;;;;;4973208;28;20224;-83
2022/11/20 12:31:33;;;;;;;16.93;13.03;;;;;;;;;;4973368;28;20240;-83
2022/11/20 12:34:09;;;;;;;8.43;7.10;;;;;;;;;;4979180;28;20200;-83
2022/11/20 12:36:41;;;;;;;17.00;10.83;;;;;;;;;;4973275;28;20231;-83
2022/11/20 12:39:34;;;;;;;19.40;14.27;;;;;;;;;;4973578;28;20235;-83
2022/11/20 12:45:11;;;;;;;30.33;19.60;;;;;;;;;;4973017;28;20204;-83
2022/11/20 12:47:51;;;;;;;28.10;19.73;;;;;;;;;;4973253;28;20196;-83
2022/11/20 12:50:24;;;;;;;21.90;16.97;;;;;;;;;;4973295;28;20224;-82
2022/11/20 12:52:55;;;;;;;28.10;18.43;;;;;;;;;;4974661;28;20301;-83
2022/11/20 12:55:43;;;;;;;20.80;16.73;;;;;;;;;;4972793;28;20211;-82
2022/11/20 12:58:17;;;;;;;21.20;13.60;;;;;;;;;;4961361;28;20290;-83
2022/11/20 13:00:51;;;;;;;29.00;19.27;;;;;;;;;;4973222;28;20208;-83
2022/11/20 13:03:33;;;;;;;42.17;29.13;;;;;;;;;;4972749;28;20298;-83
2022/11/20 13:06:06;;;;;;;31.37;21.00;;;;;;;;;;4973153;28;20189;-83
2022/11/20 13:08:36;;;;;;;29.57;20.97;;;;;;;;;;4974120;28;20242;-83
2022/11/20 13:11:11;;;;;;;33.73;23.23;;;;;;;;;;4961570;28;20322;-83
2022/11/20 13:13:45;;;;;;;27.67;16.73;;;;;;;;;;4972237;28;20261;-83
2022/11/20 13:16:18;;;;;;;25.07;18.53;;;;;;;;;;4974100;28;20294;-83
2022/11/20 13:18:46;;;;;;;32.47;22.23;;;;;;;;;;4973166;28;20190;-83
2022/11/20 13:21:16;;;;;;;20.17;13.07;;;;;;;;;;4972877;28;20355;-83
2022/11/20 13:23:44;;;;;;;23.47;18.10;;;;;;;;;;4972793;28;20298;-83
2022/11/20 13:26:17;;;;;;;1.97;1.87;;;;;;;;;;4973176;28;20238;-83
2022/11/20 13:28:49;;;;;;;20.67;15.23;;;;;;;;;;4973029;28;20209;-83
2022/11/20 13:31:27;;;;;;;38.97;22.50;;;;;;;;;;4973184;28;20251;-83
2022/11/20 13:33:57;;;;;;;24.00;14.00;;;;;;;;;;4974306;28;20205;-83
2022/11/20 13:36:26;;;;;;;31.07;20.20;;;;;;;;;;4973025;28;20329;-83
2022/11/20 13:38:55;;;;;;;9.50;6.47;;;;;;;;;;4972904;28;20201;-83
2022/11/20 13:41:33;;;;;;;13.63;9.33;;;;;;;;;;4973903;28;20197;-83
2022/11/20 13:44:12;;;;;;;19.70;13.87;;;;;;;;;;4973217;28;20254;-83
2022/11/20 13:46:42;;;;;;;23.60;17.13;;;;;;;;;;4972880;28;20263;-84
2022/11/20 13:49:12;;;;;;;28.63;17.83;;;;;;;;;;4972814;28;20217;-84
2022/11/20 13:51:44;;;;;;;7.43;6.53;;;;;;;;;;4973033;28;20258;-84
2022/11/20 13:54:21;;;;;;;36.87;22.57;;;;;;;;;;4973868;28;20200;-83
2022/11/20 13:56:55;;;;;;;32.73;19.80;;;;;;;;;;4973006;28;20221;-83
2022/11/20 13:59:44;;;;;;;38.30;23.63;;;;;;;;;;4972505;28;20214;-83
2022/11/20 14:02:14;;;;;;;27.33;17.53;;;;;;;;;;4972742;28;20246;-83
2022/11/20 14:04:45;;;;;;;25.33;15.67;;;;;;;;;;4972514;28;20216;-83
2022/11/20 14:07:13;;;;;;;32.90;18.57;;;;;;;;;;4976365;28;20192;-83
2022/11/20 14:09:50;;;;;;;33.73;20.97;;;;;;;;;;4976087;28;20227;-83
2022/11/20 14:12:20;;;;;;;32.87;19.03;;;;;;;;;;4976200;28;20193;-83
2022/11/20 14:14:51;;;;;;;18.03;10.87;;;;;;;;;;4977215;28;20223;-83
2022/11/20 14:17:20;;;;;;;34.23;22.23;;;;;;;;;;4975868;28;20227;-82
2022/11/20 14:19:49;;;;;;;38.83;22.33;;;;;;;;;;4976037;28;20197;-85
2022/11/20 14:22:19;;;;;;;28.77;18.07;;;;;;;;;;4970092;28;20254;-83
2022/11/20 14:24:48;;;;;;;19.33;12.17;;;;;;;;;;4971102;28;20212;-83
2022/11/20 14:27:18;;;;;;;22.00;14.53;;;;;;;;;;4976162;28;20208;-83
2022/11/20 14:29:47;;;;;;;17.13;10.67;;;;;;;;;;4975588;28;20235;-83
2022/11/20 14:32:18;;;;;;;44.83;27.53;;;;;;;;;;4975663;28;20205;-83
2022/11/20 14:34:48;;;;;;;45.47;30.20;;;;;;;;;;4975499;28;20235;-83
2022/11/20 14:37:19;;;;;;;35.73;22.87;;;;;;;;;;4975654;28;20219;-83
2022/11/20 14:39:52;;;;;;;19.93;12.63;;;;;;;;;;4976726;28;20192;-83
2022/11/20 14:42:22;;;;;;;21.47;12.47;;;;;;;;;;4976618;28;20260;-83
2022/11/20 14:44:51;;;;;;;29.73;18.77;;;;;;;;;;4975329;28;20269;-83
2022/11/20 14:47:22;;;;;;;8.40;7.30;;;;;;;;;;4975750;28;20237;-83
2022/11/20 14:49:51;;;;;;;16.23;9.30;;;;;;;;;;4974820;28;20244;-84
2022/11/20 14:52:20;;;;;;;23.77;16.33;;;;;;;;;;4975360;28;20233;-83
2022/11/20 14:54:49;;;;;;;17.40;11.43;;;;;;;;;;4975196;28;20252;-83
2022/11/20 14:57:26;;;;;;;26.40;15.63;;;;;;;;;;4976231;28;20269;-83
2022/11/20 15:00:05;;;;;;;21.87;16.00;;;;;;;;;;4975413;28;20328;-84
2022/11/20 15:02:35;;;;;;;5.50;5.10;;;;;;;;;;4975018;28;20251;-83
2022/11/20 15:05:04;;;;;;;18.17;11.90;;;;;;;;;;4975325;28;20227;-83